KFOE/FOE METAR and TAF weather

Enter ICAO airport designator
Station Type Date Time Source
KFOE METAR 2021/03/08 02:53 UTC NOAA

KFOE 080253Z 17005KT 10SM CLR 10/M03 A3024 RMK AO2 SLP241 T01001033 51017


Station Type Date Time Source
KFOE Decoded METAR 2021/03/08 02:53 UTC NOAA

FORBES FIELD, KS, United States (KFOE) 38-56N 95-39W 320M
Mar 07, 2021 - 09:53 PM EST / 2021.03.08 0253 UTC
Wind: from the S (170 degrees) at 6 MPH (5 KT):0
Visibility: 10 mile(s):0
Sky conditions: clear
Temperature: 50.0 F (10.0 C)
Dew Point: 26.1 F (-3.3 C)
Relative Humidity: 39%
Pressure (altimeter): 30.24 in. Hg (1024 hPa)
Pressure tendency: 0.05 inches (1.7 hPa) higher than three hours ago
ob: KFOE 080253Z 17005KT 10SM CLR 10/M03 A3024 RMK AO2 SLP241 T01001033 51017
cycle: 3

Station Type Date Time Source
KFOE TAF 2021/03/07 18:39 UTC NOAA

TAF KFOE 071736Z 0718/0818 20021G33KT P6SM FEW250
FM080100 19015KT P6SM SKC
FM080400 19011KT P6SM FEW250 WS015/21040KT
FM081500 20014G24KT P6SM FEW250

Example: see airport list